sensor_id;sensor_type;location;lat;lon;timestamp;pressure;altitude;pressure_sealevel;temperature;humidity
83418;BME280;74442;50.104;14.472;2023-12-22T00:01:57;97038.85;;;5.49;61.11
83418;BME280;74442;50.104;14.472;2023-12-22T00:04:27;97036.56;;;5.51;60.43
83418;BME280;74442;50.104;14.472;2023-12-22T00:07:05;97042.41;;;5.52;61.11
83418;BME280;74442;50.104;14.472;2023-12-22T00:09:40;97047.92;;;5.53;61.38
83418;BME280;74442;50.104;14.472;2023-12-22T00:12:12;97043.61;;;5.53;61.10
83418;BME280;74442;50.104;14.472;2023-12-22T00:14:44;97048.27;;;5.53;60.84
83418;BME280;74442;50.104;14.472;2023-12-22T00:17:14;97041.85;;;5.54;60.58
83418;BME280;74442;50.104;14.472;2023-12-22T00:19:45;97054.79;;;5.56;59.68
83418;BME280;74442;50.104;14.472;2023-12-22T00:22:17;97041.45;;;5.58;59.72
83418;BME280;74442;50.104;14.472;2023-12-22T00:24:49;97046.58;;;5.60;59.21
83418;BME280;74442;50.104;14.472;2023-12-22T00:27:19;97039.13;;;5.62;58.97
83418;BME280;74442;50.104;14.472;2023-12-22T00:29:51;97042.39;;;5.64;58.80
83418;BME280;74442;50.104;14.472;2023-12-22T00:32:22;97043.94;;;5.65;59.29
83418;BME280;74442;50.104;14.472;2023-12-22T00:34:53;97042.21;;;5.65;59.08
83418;BME280;74442;50.104;14.472;2023-12-22T00:37:28;97039.24;;;5.66;58.38
83418;BME280;74442;50.104;14.472;2023-12-22T00:40:01;97045.02;;;5.71;58.34
83418;BME280;74442;50.104;14.472;2023-12-22T00:42:34;97047.29;;;5.70;59.06
83418;BME280;74442;50.104;14.472;2023-12-22T00:45:07;97047.00;;;5.67;59.15
83418;BME280;74442;50.104;14.472;2023-12-22T00:47:38;97048.23;;;5.65;58.79
83418;BME280;74442;50.104;14.472;2023-12-22T00:50:10;97046.38;;;5.63;58.49
83418;BME280;74442;50.104;14.472;2023-12-22T00:52:43;97053.46;;;5.62;58.33
83418;BME280;74442;50.104;14.472;2023-12-22T00:55:14;97052.95;;;5.61;58.50
83418;BME280;74442;50.104;14.472;2023-12-22T00:57:47;97063.86;;;5.60;58.78
83418;BME280;74442;50.104;14.472;2023-12-22T01:00:22;97063.55;;;5.57;58.47
83418;BME280;74442;50.104;14.472;2023-12-22T01:02:54;97073.23;;;5.56;58.50
83418;BME280;74442;50.104;14.472;2023-12-22T01:05:30;97077.27;;;5.52;58.80
83418;BME280;74442;50.104;14.472;2023-12-22T01:08:04;97082.08;;;5.54;59.10
83418;BME280;74442;50.104;14.472;2023-12-22T01:10:36;97070.20;;;5.53;59.12
83418;BME280;74442;50.104;14.472;2023-12-22T01:13:11;97077.95;;;5.53;59.29
83418;BME280;74442;50.104;14.472;2023-12-22T01:15:43;97091.59;;;5.53;58.99
83418;BME280;74442;50.104;14.472;2023-12-22T01:18:13;97088.27;;;5.56;59.19
83418;BME280;74442;50.104;14.472;2023-12-22T01:20:46;97090.32;;;5.58;59.43
83418;BME280;74442;50.104;14.472;2023-12-22T01:23:18;97089.60;;;5.58;59.24
83418;BME280;74442;50.104;14.472;2023-12-22T01:25:50;97102.04;;;5.57;59.35
83418;BME280;74442;50.104;14.472;2023-12-22T01:28:25;97099.73;;;5.61;59.41
83418;BME280;74442;50.104;14.472;2023-12-22T01:30:57;97106.44;;;5.63;59.13
83418;BME280;74442;50.104;14.472;2023-12-22T01:33:31;97101.45;;;5.63;59.35
83418;BME280;74442;50.104;14.472;2023-12-22T01:36:06;97110.05;;;5.64;59.07
83418;BME280;74442;50.104;14.472;2023-12-22T01:38:38;97114.20;;;5.63;58.84
83418;BME280;74442;50.104;14.472;2023-12-22T01:41:09;97109.77;;;5.60;58.84
83418;BME280;74442;50.104;14.472;2023-12-22T01:43:40;97116.04;;;5.57;59.11
83418;BME280;74442;50.104;14.472;2023-12-22T01:46:14;97115.73;;;5.53;59.16
83418;BME280;74442;50.104;14.472;2023-12-22T01:48:45;97108.55;;;5.50;59.51
83418;BME280;74442;50.104;14.472;2023-12-22T01:51:19;97112.88;;;5.50;59.28
83418;BME280;74442;50.104;14.472;2023-12-22T01:53:51;97108.38;;;5.50;59.36
83418;BME280;74442;50.104;14.472;2023-12-22T01:56:21;97104.40;;;5.51;59.40
83418;BME280;74442;50.104;14.472;2023-12-22T01:58:57;97113.21;;;5.50;59.13
83418;BME280;74442;50.104;14.472;2023-12-22T02:01:29;97103.76;;;5.49;59.03
83418;BME280;74442;50.104;14.472;2023-12-22T02:04:01;97108.25;;;5.46;59.43
83418;BME280;74442;50.104;14.472;2023-12-22T02:06:33;97111.05;;;5.44;59.20
83418;BME280;74442;50.104;14.472;2023-12-22T02:09:05;97112.27;;;5.43;59.23
83418;BME280;74442;50.104;14.472;2023-12-22T02:11:38;97109.88;;;5.42;59.13
83418;BME280;74442;50.104;14.472;2023-12-22T02:14:08;97102.66;;;5.40;58.63
83418;BME280;74442;50.104;14.472;2023-12-22T02:16:47;97102.36;;;5.36;58.70
83418;BME280;74442;50.104;14.472;2023-12-22T02:19:31;97099.81;;;5.34;58.71
83418;BME280;74442;50.104;14.472;2023-12-22T02:22:09;97090.56;;;5.30;58.23
83418;BME280;74442;50.104;14.472;2023-12-22T02:24:41;97096.48;;;5.27;58.31
83418;BME280;74442;50.104;14.472;2023-12-22T02:27:17;97096.88;;;5.23;58.40
83418;BME280;74442;50.104;14.472;2023-12-22T02:29:57;97104.84;;;5.22;58.25
83418;BME280;74442;50.104;14.472;2023-12-22T02:32:31;97097.78;;;5.21;58.37
83418;BME280;74442;50.104;14.472;2023-12-22T02:35:07;97100.05;;;5.19;58.60
83418;BME280;74442;50.104;14.472;2023-12-22T02:37:41;97109.23;;;5.16;58.37
83418;BME280;74442;50.104;14.472;2023-12-22T02:40:13;97104.04;;;5.17;58.48
83418;BME280;74442;50.104;14.472;2023-12-22T02:42:43;97096.62;;;5.17;58.37
83418;BME280;74442;50.104;14.472;2023-12-22T02:45:17;97102.46;;;5.19;58.25
83418;BME280;74442;50.104;14.472;2023-12-22T02:47:47;97094.75;;;5.16;58.38
83418;BME280;74442;50.104;14.472;2023-12-22T02:50:18;97095.49;;;5.12;58.17
83418;BME280;74442;50.104;14.472;2023-12-22T02:52:48;97084.69;;;5.08;58.34
83418;BME280;74442;50.104;14.472;2023-12-22T02:55:22;97104.39;;;5.05;58.20
83418;BME280;74442;50.104;14.472;2023-12-22T02:57:53;97104.44;;;5.01;58.17
83418;BME280;74442;50.104;14.472;2023-12-22T03:00:23;97110.48;;;5.01;58.17
83418;BME280;74442;50.104;14.472;2023-12-22T03:02:58;97100.90;;;4.95;58.35
83418;BME280;74442;50.104;14.472;2023-12-22T03:05:28;97097.81;;;4.94;58.01
83418;BME280;74442;50.104;14.472;2023-12-22T03:07:58;97099.09;;;4.90;57.78
83418;BME280;74442;50.104;14.472;2023-12-22T03:10:33;97102.73;;;4.88;57.64
83418;BME280;74442;50.104;14.472;2023-12-22T03:13:04;97103.09;;;4.86;57.60
83418;BME280;74442;50.104;14.472;2023-12-22T03:15:35;97103.13;;;4.84;57.57
83418;BME280;74442;50.104;14.472;2023-12-22T03:18:07;97100.73;;;4.83;57.66
83418;BME280;74442;50.104;14.472;2023-12-22T03:20:41;97111.27;;;4.80;57.48
83418;BME280;74442;50.104;14.472;2023-12-22T03:23:11;97111.46;;;4.79;57.71
83418;BME280;74442;50.104;14.472;2023-12-22T03:25:43;97115.29;;;4.75;57.64
83418;BME280;74442;50.104;14.472;2023-12-22T03:28:17;97119.98;;;4.73;57.95
83418;BME280;74442;50.104;14.472;2023-12-22T03:30:51;97128.80;;;4.70;57.86
83418;BME280;74442;50.104;14.472;2023-12-22T03:33:23;97128.70;;;4.66;57.82
83418;BME280;74442;50.104;14.472;2023-12-22T03:35:56;97136.48;;;4.64;57.84
83418;BME280;74442;50.104;14.472;2023-12-22T03:38:28;97137.00;;;4.63;57.86
83418;BME280;74442;50.104;14.472;2023-12-22T03:40:59;97136.99;;;4.62;57.61
83418;BME280;74442;50.104;14.472;2023-12-22T03:43:37;97127.19;;;4.63;57.41
83418;BME280;74442;50.104;14.472;2023-12-22T03:46:08;97126.13;;;4.64;57.81
83418;BME280;74442;50.104;14.472;2023-12-22T03:48:40;97115.27;;;4.64;57.62
83418;BME280;74442;50.104;14.472;2023-12-22T03:51:12;97114.40;;;4.65;57.46
83418;BME280;74442;50.104;14.472;2023-12-22T03:53:43;97123.17;;;4.66;57.37
83418;BME280;74442;50.104;14.472;2023-12-22T03:56:18;97125.90;;;4.68;57.22
83418;BME280;74442;50.104;14.472;2023-12-22T03:58:49;97133.13;;;4.69;57.31
83418;BME280;74442;50.104;14.472;2023-12-22T04:01:20;97130.73;;;4.69;57.19
83418;BME280;74442;50.104;14.472;2023-12-22T04:03:52;97124.80;;;4.73;57.02
83418;BME280;74442;50.104;14.472;2023-12-22T04:06:26;97124.58;;;4.77;57.26
83418;BME280;74442;50.104;14.472;2023-12-22T04:08:58;97117.14;;;4.79;57.54
83418;BME280;74442;50.104;14.472;2023-12-22T04:11:37;97099.48;;;4.73;58.06
83418;BME280;74442;50.104;14.472;2023-12-22T04:14:13;97098.02;;;4.66;58.09
83418;BME280;74442;50.104;14.472;2023-12-22T04:16:49;97103.57;;;4.62;57.70
83418;BME280;74442;50.104;14.472;2023-12-22T04:19:22;97108.77;;;4.60;57.65
83418;BME280;74442;50.104;14.472;2023-12-22T04:21:52;97108.44;;;4.58;57.65
83418;BME280;74442;50.104;14.472;2023-12-22T04:24:24;97118.79;;;4.58;57.65
83418;BME280;74442;50.104;14.472;2023-12-22T04:26:55;97102.07;;;4.59;57.69
83418;BME280;74442;50.104;14.472;2023-12-22T04:29:27;97104.69;;;4.56;57.50
83418;BME280;74442;50.104;14.472;2023-12-22T04:31:57;97093.15;;;4.57;57.80
83418;BME280;74442;50.104;14.472;2023-12-22T04:34:33;97108.32;;;4.56;58.06
83418;BME280;74442;50.104;14.472;2023-12-22T04:37:07;97100.71;;;4.58;58.15
83418;BME280;74442;50.104;14.472;2023-12-22T04:39:41;97093.13;;;4.57;58.35
83418;BME280;74442;50.104;14.472;2023-12-22T04:42:11;97089.33;;;4.58;58.53
83418;BME280;74442;50.104;14.472;2023-12-22T04:44:43;97087.63;;;4.57;58.72
83418;BME280;74442;50.104;14.472;2023-12-22T04:47:15;97085.68;;;4.60;58.72
83418;BME280;74442;50.104;14.472;2023-12-22T04:49:50;97083.95;;;4.60;58.69
83418;BME280;74442;50.104;14.472;2023-12-22T04:52:21;97089.79;;;4.61;58.78
83418;BME280;74442;50.104;14.472;2023-12-22T04:54:51;97089.48;;;4.58;58.78
83418;BME280;74442;50.104;14.472;2023-12-22T04:57:22;97089.52;;;4.57;58.83
83418;BME280;74442;50.104;14.472;2023-12-22T04:59:52;97089.69;;;4.57;58.70
83418;BME280;74442;50.104;14.472;2023-12-22T05:02:25;97099.32;;;4.58;58.73
83418;BME280;74442;50.104;14.472;2023-12-22T05:04:58;97105.66;;;4.60;58.82
83418;BME280;74442;50.104;14.472;2023-12-22T05:07:30;97101.98;;;4.65;58.83
83418;BME280;74442;50.104;14.472;2023-12-22T05:10:10;97107.14;;;4.66;58.94
83418;BME280;74442;50.104;14.472;2023-12-22T05:12:44;97117.44;;;4.70;58.99
83418;BME280;74442;50.104;14.472;2023-12-22T05:15:15;97124.23;;;4.78;58.96
83418;BME280;74442;50.104;14.472;2023-12-22T05:17:44;97118.13;;;4.83;59.50
83418;BME280;74442;50.104;14.472;2023-12-22T05:20:16;97133.77;;;4.86;60.48
83418;BME280;74442;50.104;14.472;2023-12-22T05:22:47;97157.73;;;4.87;61.30
83418;BME280;74442;50.104;14.472;2023-12-22T05:25:18;97155.48;;;4.89;61.85
83418;BME280;74442;50.104;14.472;2023-12-22T05:27:49;97141.36;;;4.86;62.68
83418;BME280;74442;50.104;14.472;2023-12-22T05:30:21;97153.50;;;4.80;63.85
83418;BME280;74442;50.104;14.472;2023-12-22T05:32:53;97146.50;;;4.75;64.37
83418;BME280;74442;50.104;14.472;2023-12-22T05:35:24;97145.86;;;4.70;65.14
83418;BME280;74442;50.104;14.472;2023-12-22T05:37:56;97155.40;;;4.66;65.86
83418;BME280;74442;50.104;14.472;2023-12-22T05:40:26;97153.90;;;4.62;66.15
83418;BME280;74442;50.104;14.472;2023-12-22T05:42:56;97149.96;;;4.59;66.85
83418;BME280;74442;50.104;14.472;2023-12-22T05:45:30;97144.02;;;4.51;67.22
83418;BME280;74442;50.104;14.472;2023-12-22T05:48:00;97145.98;;;4.46;68.12
83418;BME280;74442;50.104;14.472;2023-12-22T05:50:31;97150.02;;;4.38;68.61
83418;BME280;74442;50.104;14.472;2023-12-22T05:53:05;97163.04;;;4.29;69.16
83418;BME280;74442;50.104;14.472;2023-12-22T05:55:37;97160.36;;;4.21;69.79
83418;BME280;74442;50.104;14.472;2023-12-22T05:58:09;97167.11;;;4.18;70.18
83418;BME280;74442;50.104;14.472;2023-12-22T06:00:39;97174.54;;;4.16;70.14
83418;BME280;74442;50.104;14.472;2023-12-22T06:03:10;97170.96;;;4.12;69.94
83418;BME280;74442;50.104;14.472;2023-12-22T06:05:41;97178.36;;;4.12;69.58
83418;BME280;74442;50.104;14.472;2023-12-22T06:08:15;97173.34;;;4.15;69.09
83418;BME280;74442;50.104;14.472;2023-12-22T06:10:46;97168.98;;;4.19;68.90
83418;BME280;74442;50.104;14.472;2023-12-22T06:13:16;97160.55;;;4.19;68.54
83418;BME280;74442;50.104;14.472;2023-12-22T06:15:49;97167.31;;;4.14;68.04
83418;BME280;74442;50.104;14.472;2023-12-22T06:18:20;97164.71;;;4.16;67.60
83418;BME280;74442;50.104;14.472;2023-12-22T06:20:52;97188.67;;;4.13;66.80
83418;BME280;74442;50.104;14.472;2023-12-22T06:23:25;97184.34;;;4.16;66.72
83418;BME280;74442;50.104;14.472;2023-12-22T06:25:57;97188.65;;;4.16;66.47
83418;BME280;74442;50.104;14.472;2023-12-22T06:28:27;97180.58;;;4.14;66.01
83418;BME280;74442;50.104;14.472;2023-12-22T06:30:56;97174.53;;;4.15;65.83
83418;BME280;74442;50.104;14.472;2023-12-22T06:33:27;97180.56;;;4.16;65.41
83418;BME280;74442;50.104;14.472;2023-12-22T06:35:59;97187.07;;;4.18;64.75
83418;BME280;74442;50.104;14.472;2023-12-22T06:38:32;97183.27;;;4.19;64.79
83418;BME280;74442;50.104;14.472;2023-12-22T06:41:04;97195.84;;;4.19;64.84
83418;BME280;74442;50.104;14.472;2023-12-22T06:43:35;97183.98;;;4.18;65.24
83418;BME280;74442;50.104;14.472;2023-12-22T06:46:15;97184.89;;;4.13;66.06
83418;BME280;74442;50.104;14.472;2023-12-22T06:48:46;97179.24;;;4.10;67.12
83418;BME280;74442;50.104;14.472;2023-12-22T06:51:22;97167.25;;;4.03;68.59
83418;BME280;74442;50.104;14.472;2023-12-22T06:53:57;97191.73;;;3.99;69.23
83418;BME280;74442;50.104;14.472;2023-12-22T06:56:30;97195.27;;;3.87;69.69
83418;BME280;74442;50.104;14.472;2023-12-22T06:59:02;97202.89;;;3.80;70.47
83418;BME280;74442;50.104;14.472;2023-12-22T07:01:36;97205.67;;;3.76;70.95
83418;BME280;74442;50.104;14.472;2023-12-22T07:04:09;97210.85;;;3.75;71.16
83418;BME280;74442;50.104;14.472;2023-12-22T07:06:42;97216.04;;;3.72;71.53
83418;BME280;74442;50.104;14.472;2023-12-22T07:09:32;97213.63;;;3.71;71.50
83418;BME280;74442;50.104;14.472;2023-12-22T07:12:06;97211.39;;;3.71;71.22
83418;BME280;74442;50.104;14.472;2023-12-22T07:14:38;97208.66;;;3.68;71.01
83418;BME280;74442;50.104;14.472;2023-12-22T07:17:10;97204.00;;;3.71;70.83
83418;BME280;74442;50.104;14.472;2023-12-22T07:19:41;97205.36;;;3.73;70.43
83418;BME280;74442;50.104;14.472;2023-12-22T07:22:12;97201.72;;;3.75;70.00
83418;BME280;74442;50.104;14.472;2023-12-22T07:24:44;97206.20;;;3.77;69.71
83418;BME280;74442;50.104;14.472;2023-12-22T07:27:20;97219.42;;;3.80;69.32
83418;BME280;74442;50.104;14.472;2023-12-22T07:41:43;97226.98;;;4.22;66.22
83418;BME280;74442;50.104;14.472;2023-12-22T07:44:17;97230.21;;;4.28;66.09
83418;BME280;74442;50.104;14.472;2023-12-22T07:46:59;97230.65;;;4.36;65.84
83418;BME280;74442;50.104;14.472;2023-12-22T07:49:37;97229.02;;;4.44;65.29
83418;BME280;74442;50.104;14.472;2023-12-22T07:52:08;97228.48;;;4.47;64.85
83418;BME280;74442;50.104;14.472;2023-12-22T07:54:42;97219.39;;;4.60;64.55
83418;BME280;74442;50.104;14.472;2023-12-22T07:57:17;97217.77;;;4.82;63.82
83418;BME280;74442;50.104;14.472;2023-12-22T07:59:52;97223.92;;;5.01;63.51
83418;BME280;74442;50.104;14.472;2023-12-22T08:02:23;97227.98;;;5.07;62.46
83418;BME280;74442;50.104;14.472;2023-12-22T08:04:54;97231.25;;;5.08;61.27
83418;BME280;74442;50.104;14.472;2023-12-22T08:07:27;97231.87;;;5.14;61.62
83418;BME280;74442;50.104;14.472;2023-12-22T08:09:57;97234.55;;;5.21;61.04
83418;BME280;74442;50.104;14.472;2023-12-22T08:12:29;97220.84;;;5.27;60.38
83418;BME280;74442;50.104;14.472;2023-12-22T08:15:03;97216.98;;;5.32;60.22
83418;BME280;74442;50.104;14.472;2023-12-22T08:17:35;97246.64;;;5.32;58.68
83418;BME280;74442;50.104;14.472;2023-12-22T08:20:09;97235.18;;;5.38;59.19
83418;BME280;74442;50.104;14.472;2023-12-22T08:22:43;97236.92;;;5.50;59.20
83418;BME280;74442;50.104;14.472;2023-12-22T08:25:14;97242.64;;;5.60;58.51
83418;BME280;74442;50.104;14.472;2023-12-22T08:27:47;97230.77;;;5.57;58.29
83418;BME280;74442;50.104;14.472;2023-12-22T08:30:20;97241.71;;;5.53;58.51
83418;BME280;74442;50.104;14.472;2023-12-22T08:32:54;97249.05;;;5.47;58.83
83418;BME280;74442;50.104;14.472;2023-12-22T08:35:29;97260.71;;;5.38;59.08
83418;BME280;74442;50.104;14.472;2023-12-22T08:38:04;97284.17;;;5.25;61.16
83418;BME280;74442;50.104;14.472;2023-12-22T08:40:39;97298.15;;;4.93;65.53
83418;BME280;74442;50.104;14.472;2023-12-22T08:43:11;97302.08;;;4.62;67.22
83418;BME280;74442;50.104;14.472;2023-12-22T08:45:46;97303.23;;;4.26;70.03
83418;BME280;74442;50.104;14.472;2023-12-22T08:48:16;97316.90;;;3.94;71.62
83418;BME280;74442;50.104;14.472;2023-12-22T08:50:47;97307.77;;;3.67;73.01
83418;BME280;74442;50.104;14.472;2023-12-22T08:53:20;97315.63;;;3.42;74.71
83418;BME280;74442;50.104;14.472;2023-12-22T09:08:01;97337.81;;;2.71;78.12
83418;BME280;74442;50.104;14.472;2023-12-22T09:10:35;97348.32;;;2.52;78.34
83418;BME280;74442;50.104;14.472;2023-12-22T09:13:05;97345.73;;;2.31;79.23
83418;BME280;74442;50.104;14.472;2023-12-22T09:15:39;97337.15;;;2.15;79.64
83418;BME280;74442;50.104;14.472;2023-12-22T09:18:24;97337.48;;;2.06;80.60
83418;BME280;74442;50.104;14.472;2023-12-22T09:20:57;97336.96;;;2.10;80.98
83418;BME280;74442;50.104;14.472;2023-12-22T09:23:28;97327.88;;;2.39;81.11
83418;BME280;74442;50.104;14.472;2023-12-22T09:26:07;97334.86;;;2.90;80.64
83418;BME280;74442;50.104;14.472;2023-12-22T09:28:44;97332.15;;;3.77;79.65
83418;BME280;74442;50.104;14.472;2023-12-22T09:31:19;97339.22;;;4.28;77.40
83418;BME280;74442;50.104;14.472;2023-12-22T09:48:50;97311.96;;;4.73;72.65
83418;BME280;74442;50.104;14.472;2023-12-22T09:51:24;97312.49;;;4.72;72.58
83418;BME280;74442;50.104;14.472;2023-12-22T09:54:18;97315.89;;;4.78;71.59
83418;BME280;74442;50.104;14.472;2023-12-22T09:56:51;97317.48;;;4.74;70.64
83418;BME280;74442;50.104;14.472;2023-12-22T09:59:22;97304.41;;;4.51;69.62
83418;BME280;74442;50.104;14.472;2023-12-22T10:10:57;97326.98;;;4.30;70.29
83418;BME280;74442;50.104;14.472;2023-12-22T10:13:30;97324.83;;;4.18;70.42
83418;BME280;74442;50.104;14.472;2023-12-22T10:16:38;97318.89;;;4.08;70.87
83418;BME280;74442;50.104;14.472;2023-12-22T10:25:29;97362.73;;;3.49;70.28
83418;BME280;74442;50.104;14.472;2023-12-22T10:28:08;97382.92;;;3.28;70.47
83418;BME280;74442;50.104;14.472;2023-12-22T10:31:07;97393.25;;;3.17;71.58
83418;BME280;74442;50.104;14.472;2023-12-22T14:46:46;97202.08;;;4.16;73.32
83418;BME280;74442;50.104;14.472;2023-12-22T14:49:19;97201.70;;;4.20;73.19
83418;BME280;74442;50.104;14.472;2023-12-22T14:51:57;97198.70;;;4.27;72.78
83418;BME280;74442;50.104;14.472;2023-12-22T14:54:28;97202.98;;;4.31;71.92
83418;BME280;74442;50.104;14.472;2023-12-22T14:57:03;97204.46;;;4.37;70.98
83418;BME280;74442;50.104;14.472;2023-12-22T14:59:50;97210.42;;;4.45;70.56
83418;BME280;74442;50.104;14.472;2023-12-22T15:02:23;97216.36;;;4.53;70.33
83418;BME280;74442;50.104;14.472;2023-12-22T15:04:59;97209.45;;;4.55;70.48
83418;BME280;74442;50.104;14.472;2023-12-22T15:07:32;97211.10;;;4.61;70.55
83418;BME280;74442;50.104;14.472;2023-12-22T15:10:09;97231.23;;;4.65;69.58
83418;BME280;74442;50.104;14.472;2023-12-22T15:12:41;97236.01;;;4.70;69.89
83418;BME280;74442;50.104;14.472;2023-12-22T15:15:20;97245.74;;;4.77;68.81
83418;BME280;74442;50.104;14.472;2023-12-22T15:17:53;97248.75;;;4.86;68.83
83418;BME280;74442;50.104;14.472;2023-12-22T15:20:29;97244.58;;;4.89;68.98
83418;BME280;74442;50.104;14.472;2023-12-22T15:23:14;97248.86;;;4.92;69.17
83418;BME280;74442;50.104;14.472;2023-12-22T15:25:48;97264.00;;;4.95;68.63
83418;BME280;74442;50.104;14.472;2023-12-22T15:28:20;97267.59;;;4.98;68.84
83418;BME280;74442;50.104;14.472;2023-12-22T15:30:59;97268.41;;;5.01;68.91
83418;BME280;74442;50.104;14.472;2023-12-22T15:33:43;97277.86;;;5.03;69.40
83418;BME280;74442;50.104;14.472;2023-12-22T15:36:24;97287.75;;;4.99;70.10
83418;BME280;74442;50.104;14.472;2023-12-22T15:39:09;97287.49;;;4.91;70.94
83418;BME280;74442;50.104;14.472;2023-12-22T15:41:43;97286.21;;;4.81;71.78
83418;BME280;74442;50.104;14.472;2023-12-22T15:44:18;97294.15;;;4.79;72.45
83418;BME280;74442;50.104;14.472;2023-12-22T15:46:49;97299.54;;;4.75;73.10
83418;BME280;74442;50.104;14.472;2023-12-22T15:49:22;97299.24;;;4.70;73.30
83418;BME280;74442;50.104;14.472;2023-12-22T15:51:53;97286.55;;;4.64;73.71
83418;BME280;74442;50.104;14.472;2023-12-22T15:54:27;97285.25;;;4.56;74.21
83418;BME280;74442;50.104;14.472;2023-12-22T15:57:01;97284.10;;;4.50;74.53
83418;BME280;74442;50.104;14.472;2023-12-22T15:59:36;97280.02;;;4.44;74.89
83418;BME280;74442;50.104;14.472;2023-12-22T16:02:15;97285.08;;;4.38;75.23
83418;BME280;74442;50.104;14.472;2023-12-22T16:04:53;97287.70;;;4.33;75.20
83418;BME280;74442;50.104;14.472;2023-12-22T16:07:42;97281.52;;;4.28;75.38
83418;BME280;74442;50.104;14.472;2023-12-22T16:10:23;97271.77;;;4.21;75.72
83418;BME280;74442;50.104;14.472;2023-12-22T16:13:02;97279.02;;;4.19;75.58
83418;BME280;74442;50.104;14.472;2023-12-22T16:15:39;97286.41;;;4.21;75.98
83418;BME280;74442;50.104;14.472;2023-12-22T16:18:20;97280.90;;;4.21;75.94
83418;BME280;74442;50.104;14.472;2023-12-22T16:20:52;97269.89;;;4.21;76.03
83418;BME280;74442;50.104;14.472;2023-12-22T16:23:31;97257.67;;;4.18;75.96
83418;BME280;74442;50.104;14.472;2023-12-22T16:26:00;97246.66;;;4.18;76.14
83418;BME280;74442;50.104;14.472;2023-12-22T16:28:34;97246.15;;;4.16;76.16
83418;BME280;74442;50.104;14.472;2023-12-22T16:31:11;97253.05;;;4.14;76.31
83418;BME280;74442;50.104;14.472;2023-12-22T16:33:43;97259.77;;;4.16;76.28
83418;BME280;74442;50.104;14.472;2023-12-22T16:36:16;97253.19;;;4.19;76.23
83418;BME280;74442;50.104;14.472;2023-12-22T16:38:47;97253.33;;;4.23;76.15
83418;BME280;74442;50.104;14.472;2023-12-22T16:41:21;97251.21;;;4.28;76.26
83418;BME280;74442;50.104;14.472;2023-12-22T16:43:59;97251.02;;;4.33;76.14
83418;BME280;74442;50.104;14.472;2023-12-22T16:46:41;97248.22;;;4.37;76.28
83418;BME280;74442;50.104;14.472;2023-12-22T16:49:17;97245.13;;;4.37;76.20
83418;BME280;74442;50.104;14.472;2023-12-22T16:51:49;97249.23;;;4.40;76.05
83418;BME280;74442;50.104;14.472;2023-12-22T16:54:25;97244.75;;;4.39;75.79
83418;BME280;74442;50.104;14.472;2023-12-22T16:57:04;97234.75;;;4.40;75.39
83418;BME280;74442;50.104;14.472;2023-12-22T16:59:38;97230.04;;;4.46;74.87
83418;BME280;74442;50.104;14.472;2023-12-22T17:02:10;97230.48;;;4.53;74.66
83418;BME280;74442;50.104;14.472;2023-12-22T17:04:47;97232.98;;;4.60;73.98
83418;BME280;74442;50.104;14.472;2023-12-22T17:07:20;97234.64;;;4.69;72.95
83418;BME280;74442;50.104;14.472;2023-12-22T17:09:54;97236.95;;;4.77;72.79
83418;BME280;74442;50.104;14.472;2023-12-22T17:12:28;97227.93;;;4.83;71.91
83418;BME280;74442;50.104;14.472;2023-12-22T17:15:00;97218.91;;;4.88;71.56
83418;BME280;74442;50.104;14.472;2023-12-22T17:17:38;97233.14;;;4.94;71.21
83418;BME280;74442;50.104;14.472;2023-12-22T17:20:16;97228.92;;;5.01;70.56
83418;BME280;74442;50.104;14.472;2023-12-22T17:22:52;97227.16;;;5.05;70.71
83418;BME280;74442;50.104;14.472;2023-12-22T17:25:23;97232.13;;;5.07;70.57
83418;BME280;74442;50.104;14.472;2023-12-22T17:27:58;97241.27;;;5.07;70.68
83418;BME280;74442;50.104;14.472;2023-12-22T17:30:37;97244.05;;;5.06;70.89
83418;BME280;74442;50.104;14.472;2023-12-22T17:33:08;97250.27;;;5.04;71.34
83418;BME280;74442;50.104;14.472;2023-12-22T17:35:43;97248.57;;;5.01;71.71
83418;BME280;74442;50.104;14.472;2023-12-22T17:38:19;97248.11;;;4.98;71.95
83418;BME280;74442;50.104;14.472;2023-12-22T17:40:54;97250.91;;;4.93;72.37
83418;BME280;74442;50.104;14.472;2023-12-22T17:43:32;97253.42;;;4.85;72.61
83418;BME280;74442;50.104;14.472;2023-12-22T17:46:13;97251.75;;;4.81;72.99
83418;BME280;74442;50.104;14.472;2023-12-22T17:49:22;97254.02;;;4.77;73.52
83418;BME280;74442;50.104;14.472;2023-12-22T17:52:00;97263.38;;;4.73;73.90
83418;BME280;74442;50.104;14.472;2023-12-22T17:54:40;97271.00;;;4.67;74.78
83418;BME280;74442;50.104;14.472;2023-12-22T17:57:22;97267.97;;;4.61;75.55
83418;BME280;74442;50.104;14.472;2023-12-22T18:00:18;97269.59;;;4.55;75.91
83418;BME280;74442;50.104;14.472;2023-12-22T18:03:09;97267.41;;;4.46;76.04
83418;BME280;74442;50.104;14.472;2023-12-22T18:05:46;97266.77;;;4.42;76.30
83418;BME280;74442;50.104;14.472;2023-12-22T18:08:28;97258.88;;;4.40;76.70
83418;BME280;74442;50.104;14.472;2023-12-22T18:11:09;97263.37;;;4.37;77.02
83418;BME280;74442;50.104;14.472;2023-12-22T18:13:54;97259.80;;;4.32;77.86
83418;BME280;74442;50.104;14.472;2023-12-22T18:16:36;97263.30;;;4.25;79.14
83418;BME280;74442;50.104;14.472;2023-12-22T18:19:43;97267.48;;;4.18;79.68
83418;BME280;74442;50.104;14.472;2023-12-22T18:22:28;97263.39;;;4.13;80.24
83418;BME280;74442;50.104;14.472;2023-12-22T18:25:09;97269.93;;;4.15;80.51
83418;BME280;74442;50.104;14.472;2023-12-22T18:27:40;97262.38;;;4.12;80.51
83418;BME280;74442;50.104;14.472;2023-12-22T18:30:19;97268.25;;;4.09;80.13
83418;BME280;74442;50.104;14.472;2023-12-22T18:33:08;97269.06;;;3.91;80.42
83418;BME280;74442;50.104;14.472;2023-12-22T18:38:47;97264.05;;;3.68;81.43
83418;BME280;74442;50.104;14.472;2023-12-22T18:41:25;97264.44;;;3.63;81.77
83418;BME280;74442;50.104;14.472;2023-12-22T19:10:48;97346.36;;;1.86;82.80
83418;BME280;74442;50.104;14.472;2023-12-22T19:13:21;97345.48;;;1.77;82.96
83418;BME280;74442;50.104;14.472;2023-12-22T19:15:54;97350.79;;;1.71;83.25